Latest Weather Observations for Gunnedah Airport

IDN60801

Issued at 11:33 am EST Saturday 30 July 2016 (issued every 30 minutes, with the page automatically refreshed every 10 minutes)

About weather observations | Map of weather stations | Latest weather observations for NSW | Other Formats
Station Details ID: 055202 Name: GUNNEDAH AIRPORT AWS Lat: -30.95 Lon: 150.25 Height: 262.57 m
Data from the previous 72 hours. | See also: Recent months at Gunnedah Airport
Date/Time
EST
Temp
°C
App
Temp
°C
Dew
Point
°C
Rel
Hum
%
Delta-T
°C
Wind Press
QNH
hPa
Press
MSL
hPa
Rain since
9am
mm
Dir  Spd
km/h
Gust
km/h
Spd
kts
Gust
kts
30/11:30am 11.3 9.2 5.8 69 2.6 E 6 11 3 6 1022.4 1022.7 0.0
30/11:00am 9.9 7.0 4.7 70 2.4 NE 9 11 5 6 1022.7 1023.0 0.0
30/10:30am 9.0 6.3 5.4 78 1.7 ESE 9 13 5 7 1023.2 1023.5 0.0
30/10:00am 6.4 3.1 4.6 88 0.8 SE 11 15 6 8 1023.4 1023.7 0.0
30/09:30am 4.4 1.3 3.7 95 0.3 ESE 9 13 5 7 1023.5 1023.8 0.0
30/09:00am 2.8 -0.9 2.1 95 0.3 E 11 13 6 7 1023.3 1023.6 0.2
30/08:30am 1.1 -2.9 0.4 95 0.3 ESE 11 15 6 8 1023.5 1023.8 0.2
30/08:00am 1.1 -2.9 0.4 95 0.3 SE 11 17 6 9 1023.6 1023.9 0.2
30/07:30am 0.2 -4.7 -0.5 95 0.3 SE 15 17 8 9 1023.3 1023.6 0.2
30/07:00am -0.7 -3.7 -1.5 94 0.2 ESE 4 15 2 8 1023.0 1023.3 0.2
30/06:30am -1.7 -4.0 -2.5 94 0.2 CALM 0 0 0 0 1022.7 1023.0 0.2
30/06:00am -0.8 -3.0 -1.6 94 0.2 CALM 0 0 0 0 1022.4 1022.7 0.2
30/05:30am -1.5 -3.8 -2.3 94 0.2 CALM 0 0 0 0 1022.3 1022.6 0.2
30/05:00am -3.0 -5.5 -3.8 94 0.1 CALM 0 0 0 0 1022.0 1022.4 0.2
30/04:30am -3.1 -5.6 -4.1 93 0.2 CALM 0 0 0 0 1021.8 1022.2 0.2
30/04:00am -1.1 -3.3 -1.9 94 0.2 CALM 0 0 0 0 1021.9 1022.3 0.2
30/03:30am -2.3 -4.7 -3.3 93 0.2 CALM 0 0 0 0 1022.3 1022.6 0.2
30/03:00am -2.8 -5.3 -3.9 92 0.2 CALM 0 0 0 0 1021.8 1022.2 0.2
30/02:30am -1.0 -3.2 -1.8 94 0.2 CALM 0 0 0 0 1022.3 1022.6 0.2
30/02:00am 0.0 -2.1 -0.8 94 0.3 CALM 0 0 0 0 1022.6 1022.9 0.2
30/01:30am 0.9 -1.1 -0.1 93 0.4 CALM 0 0 0 0 1022.8 1023.1 0.2
30/01:00am -0.5 -2.7 -1.8 91 0.4 CALM 0 0 0 0 1023.1 1023.4 0.2
30/12:30am 0.9 -1.1 -0.1 93 0.4 CALM 0 0 0 0 1023.1 1023.4 0.2
30/12:00am 1.3 -0.6 0.3 93 0.4 CALM 0 0 0 0 1023.1 1023.4 0.2
 
Date/Time
EST
Temp
°C
App
Temp
°C
Dew
Point
°C
Rel
Hum
%
Delta-T
°C
Wind Press
QNH
hPa
Press
MSL
hPa
Rain since
9am
mm
Dir  Spd
km/h
Gust
km/h
Spd
kts
Gust
kts
29/11:30pm 0.8 -1.3 -0.5 91 0.5 CALM 0 0 0 0 1023.1 1023.4 0.2
29/11:00pm 0.9 -1.1 -0.4 91 0.5 CALM 0 0 0 0 1023.0 1023.3 0.2
29/10:30pm 1.9 0.0 0.6 91 0.5 CALM 0 0 0 0 1023.0 1023.3 0.2
29/10:00pm 2.4 0.6 0.9 90 0.6 CALM 0 0 0 0 1022.8 1023.1 0.2
29/09:30pm 2.5 -0.5 0.6 87 0.7 E 6 9 3 5 1022.8 1023.1 0.2
29/09:00pm 2.3 -1.3 0.5 88 0.7 ENE 9 13 5 7 1022.8 1023.1 0.2
29/08:30pm 2.9 0.8 1.4 90 0.6 NNE 2 7 1 4 1022.5 1022.8 0.2
29/08:00pm 3.0 0.6 -0.1 80 1.2 S 2 7 1 4 1022.4 1022.7 0.2
29/07:30pm 5.4 2.1 2.6 82 1.2 S 9 11 5 6 1022.3 1022.6 0.2
29/07:00pm 6.1 3.4 3.6 84 1.1 SSW 7 7 4 4 1022.0 1022.4 0.2
29/06:30pm 6.6 5.1 3.2 79 1.4 CALM 0 0 0 0 1021.7 1022.1 0.2
29/06:00pm 8.9 6.4 3.9 71 2.2 NNW 6 6 3 3 1021.3 1021.7 0.2
29/05:30pm 11.4 9.3 3.9 60 3.4 WNW 4 6 2 3 1021.2 1021.6 0.2
29/05:00pm 13.6 11.0 4.2 53 4.3 WNW 7 9 4 5 1021.1 1021.4 0.2
29/04:30pm 14.1 11.2 4.9 54 4.3 NW 9 11 5 6 1021.2 1021.6 0.2
29/04:00pm 14.5 11.6 4.5 51 4.7 NW 9 13 5 7 1021.2 1021.6 0.2
29/03:30pm 14.7 11.8 4.7 51 4.7 NW 9 15 5 8 1021.2 1021.6 0.2
29/03:00pm 14.8 12.2 5.9 55 4.3 NW 9 15 5 8 1021.4 1021.8 0.2
29/02:30pm 14.4 11.9 6.5 59 3.9 NNW 9 13 5 7 1021.3 1021.7 0.2
29/02:00pm 14.5 12.6 7.5 63 3.5 NW 7 15 4 8 1021.7 1022.1 0.2
29/01:30pm 13.5 10.3 5.2 57 3.9 NW 11 17 6 9 1022.1 1022.5 0.0
29/01:00pm 13.5 10.8 5.4 58 3.8 WNW 9 15 5 8 1022.5 1022.8 0.0
29/12:30pm 13.3 11.2 6.6 64 3.3 WNW 7 13 4 7 1023.0 1023.3 0.0
29/12:00pm 12.2 10.1 5.8 65 3.0 NNE 6 11 3 6 1023.5 1023.8 0.0
29/11:30am 11.6 8.9 5.7 67 2.8 ENE 9 13 5 7 1023.9 1024.2 0.0
29/11:00am 11.0 8.0 6.0 71 2.3 SE 11 17 6 9 1024.5 1024.9 0.0
29/10:30am 10.1 6.5 5.1 71 2.3 SE 13 19 7 10 1024.8 1025.2 0.0
29/10:00am 9.2 6.0 5.2 76 1.8 ESE 11 15 6 8 1025.1 1025.5 0.0
29/09:30am 7.6 6.4 4.6 81 1.3 CALM 0 0 0 0 1025.3 1025.7 0.0
29/09:00am 6.0 4.7 4.2 88 0.8 CALM 0 0 0 0 1025.3 1025.7 0.0
29/08:30am 3.8 2.3 2.9 94 0.4 CALM 0 2 0 1 1025.2 1025.6 0.0
29/08:00am 0.9 -1.1 0.0 94 0.3 CALM 0 0 0 0 1025.2 1025.6 0.0
29/07:30am -1.2 -3.5 -2.0 94 0.2 CALM 0 0 0 0 1025.3 1025.7 0.0
29/07:00am -2.7 -5.1 -3.5 94 0.1 CALM 0 0 0 0 1025.2 1025.6 0.0
29/06:30am -2.2 -4.6 -3.0 94 0.2 CALM 0 0 0 0 1024.9 1025.3 0.0
29/06:00am -2.2 -4.6 -3.0 94 0.2 CALM 0 0 0 0 1024.5 1024.9 0.0
29/05:30am -1.3 -3.6 -2.1 94 0.2 CALM 0 0 0 0 1024.5 1024.9 0.0
29/05:00am -0.7 -2.9 -1.5 94 0.2 CALM 0 0 0 0 1024.3 1024.6 0.0
29/04:30am -0.4 -2.6 -1.2 94 0.3 CALM 0 0 0 0 1024.2 1024.5 0.0
29/04:00am -0.8 -3.0 -1.6 94 0.2 CALM 0 0 0 0 1024.1 1024.4 0.0
29/03:30am -0.3 -2.4 -1.1 94 0.3 CALM 0 0 0 0 1024.1 1024.4 0.0
29/03:00am -0.3 -2.5 -1.3 93 0.3 CALM 0 0 0 0 1024.3 1024.6 0.0
29/02:30am -0.8 -3.4 -1.9 92 0.3 E 2 6 1 3 1024.2 1024.5 0.0
29/02:00am -0.7 -4.6 -1.8 92 0.3 NNE 9 11 5 6 1024.1 1024.4 0.0
29/01:30am -0.6 -2.8 -1.9 91 0.4 CALM 0 0 0 0 1024.1 1024.4 0.0
29/01:00am 1.2 -0.8 0.2 93 0.4 CALM 0 0 0 0 1024.1 1024.4 0.0
29/12:30am 0.5 -3.3 -0.5 93 0.4 NNE 9 13 5 7 1024.3 1024.6 0.0
29/12:00am 0.8 -2.5 -0.2 93 0.4 NE 7 9 4 5 1024.2 1024.5 0.0
 
Date/Time
EST
Temp
°C
App
Temp
°C
Dew
Point
°C
Rel
Hum
%
Delta-T
°C
Wind Press
QNH
hPa
Press
MSL
hPa
Rain since
9am
mm
Dir  Spd
km/h
Gust
km/h
Spd
kts
Gust
kts
28/11:30pm 0.1 -2.8 -1.2 91 0.5 WNW 4 7 2 4 1024.4 1024.8 0.0
28/11:00pm 2.5 0.0 1.5 93 0.4 N 4 9 2 5 1024.5 1024.9 0.0
28/10:30pm 3.8 1.1 2.9 94 0.4 NW 6 11 3 6 1024.6 1025.0 0.0
28/10:00pm 2.2 -0.1 0.6 89 0.6 N 2 7 1 4 1024.3 1024.6 0.0
28/09:30pm 2.3 0.4 0.5 88 0.7 CALM 0 0 0 0 1024.4 1024.8 0.0
28/09:00pm 3.2 0.3 1.3 87 0.7 NNE 6 7 3 4 1024.6 1025.0 0.0
28/08:30pm 4.8 3.3 3.0 88 0.7 CALM 0 0 0 0 1024.6 1025.0 0.0
28/08:00pm 5.2 3.6 2.7 84 1.0 CALM 0 0 0 0 1024.5 1024.9 0.0
28/07:30pm 5.5 4.0 3.2 85 1.0 CALM 0 0 0 0 1024.7 1025.1 0.0
28/07:00pm 7.1 5.8 4.1 81 1.3 CALM 0 0 0 0 1024.4 1024.8 0.0
28/06:30pm 8.3 6.1 5.1 80 1.4 W 6 6 3 3 1024.3 1024.6 0.0
28/06:00pm 8.8 7.2 4.4 74 2.0 W 2 6 1 3 1024.1 1024.4 0.0
28/05:30pm 12.5 9.7 5.0 60 3.5 NW 9 11 5 6 1024.0 1024.3 0.0
28/05:00pm 13.5 11.2 5.7 59 3.7 NW 7 11 4 6 1023.8 1024.1 0.0
28/04:30pm 14.8 12.2 6.1 56 4.2 WNW 9 13 5 7 1023.7 1024.0 0.0
28/04:00pm 15.1 11.7 5.9 54 4.5 WNW 13 19 7 10 1023.6 1023.9 0.0
28/03:30pm 15.4 12.8 6.2 54 4.5 WNW 9 15 5 8 1023.6 1023.9 0.0
28/03:00pm 15.3 11.7 5.2 51 4.8 WNW 13 17 7 9 1023.6 1023.9 0.0
28/02:30pm 15.3 13.0 7.6 60 3.9 NNW 9 15 5 8 1023.8 1024.1 0.0
28/02:00pm 14.9 12.5 7.2 60 3.8 NNW 9 13 5 7 1024.0 1024.3 0.0
28/01:30pm 14.2 11.6 6.1 58 3.9 W 9 15 5 8 1024.1 1024.4 0.0
28/01:00pm 13.8 11.2 6.2 60 3.7 WNW 9 15 5 8 1024.7 1025.1 0.0
28/12:30pm 13.7 12.5 6.3 61 3.6 NE 2 9 1 5 1025.3 1025.7 0.0
28/12:00pm 12.5 10.2 5.7 63 3.2 ENE 7 13 4 7 1025.7 1026.1 0.0
28/11:30am 12.1 10.2 6.8 70 2.6 N 6 11 3 6 1026.4 1026.7 0.0
28/11:00am 11.5 9.3 6.2 70 2.5 ENE 7 11 4 6 1026.7 1027.0 0.0
28/10:30am 10.6 9.6 5.6 71 2.3 CALM 0 0 0 0 1027.0 1027.3 0.0
28/10:00am 9.9 8.8 5.3 73 2.1 CALM 0 0 0 0 1027.0 1027.3 0.0
28/09:30am 8.9 7.8 5.3 78 1.6 CALM 0 0 0 0 1026.8 1027.1 0.0
28/09:00am 6.8 5.5 4.3 84 1.1 CALM 0 0 0 0 1026.6 1026.9 0.0
28/08:30am 4.5 3.0 2.8 89 0.7 CALM 0 0 0 0 1026.6 1026.9 0.0
28/08:00am 2.5 0.7 1.2 91 0.5 CALM 0 0 0 0 1026.5 1026.8 0.0
28/07:30am 0.0 -2.1 -1.1 92 0.4 CALM 0 0 0 0 1025.9 1026.3 0.0
28/07:00am -0.9 -4.5 -2.0 92 0.3 NNE 7 9 4 5 1025.8 1026.2 0.0
28/06:30am -0.5 -2.7 -1.8 91 0.4 CALM 0 0 0 0 1025.3 1025.7 0.0
28/06:00am 0.0 -2.9 -1.3 91 0.5 E 4 7 2 4 1025.0 1025.4 0.0
28/05:30am 1.1 -3.0 0.1 93 0.4 NNW 11 15 6 8 1024.6 1025.0 0.0
28/05:00am 1.8 -2.2 0.5 91 0.5 WNW 11 15 6 8 1024.2 1024.5 0.0
28/04:30am 1.9 -1.7 0.7 92 0.5 WNW 9 11 5 6 1024.1 1024.4 0.0
28/04:00am 2.1 -1.9 0.6 90 0.6 WNW 11 15 6 8 1024.0 1024.3 0.0
28/03:30am 2.2 -1.3 1.2 93 0.4 WNW 9 13 5 7 1024.0 1024.3 0.0
28/03:00am 1.8 -1.4 0.9 94 0.3 WSW 7 9 4 5 1023.9 1024.2 0.0
28/02:30am 1.7 -1.9 0.8 94 0.3 WSW 9 11 5 6 1023.8 1024.1 0.0
28/02:00am 0.7 -2.5 -0.4 92 0.4 W 6 7 3 4 1023.9 1024.2 0.0
28/01:30am 0.9 -1.1 -0.4 91 0.5 CALM 0 0 0 0 1023.9 1024.2 0.0
28/01:00am 1.7 -0.2 0.5 92 0.5 CALM 0 6 0 3 1023.9 1024.2 0.0
28/12:30am 2.1 -0.2 0.6 90 0.6 NNW 2 6 1 3 1024.0 1024.3 0.0
28/12:00am 2.9 1.2 1.6 91 0.5 CALM 0 0 0 0 1024.0 1024.3 0.0
 
Date/Time
EST
Temp
°C
App
Temp
°C
Dew
Point
°C
Rel
Hum
%
Delta-T
°C
Wind Press
QNH
hPa
Press
MSL
hPa
Rain since
9am
mm
Dir  Spd
km/h
Gust
km/h
Spd
kts
Gust
kts
27/11:30pm 2.0 -1.1 0.4 89 0.6 NE 6 9 3 5 1023.9 1024.2 0.0
27/11:00pm 3.3 -1.1 0.5 82 1.1 WNW 13 15 7 8 1023.8 1024.1 0.0
27/10:30pm 4.0 0.3 2.2 88 0.7 WNW 11 13 6 7 1023.8 1024.1 0.0
27/10:00pm 4.7 2.0 2.9 88 0.7 W 6 9 3 5 1023.8 1024.1 0.0
27/09:30pm 5.0 2.2 2.9 86 0.9 W 7 9 4 5 1023.7 1024.0 0.0
27/09:00pm 6.1 3.4 2.9 80 1.3 NW 6 9 3 5 1023.6 1023.9 0.0
27/08:30pm 7.4 3.9 3.6 77 1.6 NW 11 13 6 7 1023.1 1023.4 0.0
27/08:00pm 8.0 3.8 3.8 75 1.8 W 15 17 8 9 1022.8 1023.1 0.0
27/07:30pm 7.9 4.0 3.6 74 1.9 W 13 13 7 7 1022.4 1022.7 0.0
27/07:00pm 9.5 6.6 4.7 72 2.2 WSW 9 11 5 6 1021.7 1022.1 0.0
27/06:30pm 9.8 6.1 4.2 68 2.5 WSW 13 15 7 8 1021.1 1021.4 0.0
27/06:00pm 11.0 6.9 4.2 63 3.1 WSW 15 19 8 10 1020.5 1020.8 0.0
27/05:30pm 11.8 7.4 4.5 61 3.4 W 17 20 9 11 1019.9 1020.2 0.0
27/05:00pm 13.9 9.1 4.8 54 4.3 W 19 24 10 13 1019.6 1019.9 0.0
27/04:30pm 14.9 10.1 4.9 51 4.8 W 19 22 10 12 1019.2 1019.5 0.0
27/04:00pm 15.6 10.8 4.6 48 5.2 WNW 19 24 10 13 1018.7 1019.0 0.0
27/03:30pm 15.4 10.3 4.2 47 5.3 W 20 26 11 14 1018.6 1018.9 0.0
27/03:00pm 15.8 11.0 4.8 48 5.2 WSW 19 28 10 15 1018.4 1018.7 0.0
27/02:30pm 17.0 10.1 4.7 44 5.9 WNW 30 39 16 21 1017.9 1018.2 0.0
27/02:00pm 16.5 11.2 4.9 46 5.6 WNW 22 32 12 17 1017.9 1018.2 0.0
27/01:30pm 15.8 10.9 5.1 49 5.1 WNW 20 30 11 16 1018.0 1018.4 0.0
27/01:00pm 15.0 9.6 4.4 49 5.0 WNW 22 32 12 17 1018.3 1018.6 0.0
27/12:30pm 15.9 11.2 6.1 52 4.8 W 20 30 11 16 1018.7 1019.0 0.0
27/12:00pm 15.0 10.1 5.2 52 4.7 WNW 20 26 11 14 1019.0 1019.3 0.0

Other Formats:

Comma delimited format used in spreadsheet applications
http://www.bom.gov.au/fwo/IDN60801/IDN60801.95740.axf

JavaScript Object Notation format (JSON) in row-major order
http://www.bom.gov.au/fwo/IDN60801/IDN60801.95740.json